Terminal Aerodrome Forecast
Issued by NWS

Home | Current Version | Previous Version | Text Only | Print | Product List | Glossary On
Versions: 1 2 3 4 5 6 7 8 9 10 11 12 13 14 15 16
000
FTUS41 KCLE 282300
TAFFDY
TAF
KFDY 282340Z 2900/2924 29005KT P6SM OVC200
     FM290400 VRB03KT P6SM BKN250
     FM291600 03005KT P6SM SCT035=

USA.gov is the U.S. government's official web portal to all federal, state and local government web resources and services.